Terminal Aerodrome Forecast
Issued by NWS Columbia, SC

Home | Current Version | Previous Version | Text Only | Print | Product List | Glossary On
Versions: 1 2 3 4 5 6 7 8 9 10 11 12 13 14 15 16 17 18 19 20 21 22 23 24 25 26 27 28 29 30 31 32 33 34 35 36 37 38 39 40 41 42 43 44 45
000
FTAK31 PAJN 040523
TAFAGS
TAF
PAGS 040523Z 0406/0506 24006KT P6SM BKN060
     FM040900 16003KT P6SM -SHRA BKN060
     FM041700 15009KT P6SM -SHRA BKN040 OVC060
     FM042100 15007KT P6SM VCSH BKN040 OVC050
     FM050400 15009KT P6SM -SHRA BKN030 OVC050
      AMD LTD TO CLD VIS AND WIND=

USA.gov is the U.S. government's official web portal to all federal, state and local government web resources and services.